Time;durP1;ratioP1;P1;durP2;ratioP2;P2;SDS_P1;SDS_P2;PMS_P1;PMS_P2;Temp;Humidity;BMP_temperature;BMP_pressure;BME280_temperature;BME280_humidity;BME280_pressure;Samples;Min_cycle;Max_cycle;Signal;HPM_P1;HPM_P2
2023/09/25 00:00:08;;;;;;;3.23;1.50;;;;;;;13.09;100.00;101414.13;691498;28;1281;-62
2023/09/25 00:00:31;;;;;;;3.20;1.40;;;;;;;13.11;100.00;101423.75;693132;28;893;-63
2023/09/25 00:00:52;;;;;;;1.80;1.23;;;;;;;13.11;100.00;101420.25;692949;28;1279;-63
2023/09/25 00:01:12;;;;;;;2.33;1.30;;;;;;;13.11;100.00;101420.25;691048;28;4514;-62
2023/09/25 00:01:33;;;;;;;3.00;1.40;;;;;;;13.12;100.00;101416.75;693085;28;936;-62
2023/09/25 00:01:53;;;;;;;2.57;1.40;;;;;;;13.13;100.00;101417.63;693153;28;936;-63
2023/09/25 00:02:14;;;;;;;2.83;1.40;;;;;;;13.14;100.00;101419.34;691661;28;1125;-62
2023/09/25 00:02:34;;;;;;;3.70;1.63;;;;;;;13.20;100.00;101428.09;692894;28;1457;-65
2023/09/25 00:02:55;;;;;;;6.63;1.90;;;;;;;13.21;100.00;101418.44;693105;28;929;-63
2023/09/25 00:03:15;;;;;;;2.80;1.42;;;;;;;13.14;100.00;101417.63;692055;28;1354;-63
2023/09/25 00:03:36;;;;;;;2.53;1.40;;;;;;;13.12;100.00;101419.38;693303;28;912;-66
2023/09/25 00:03:56;;;;;;;3.20;1.40;;;;;;;13.12;100.00;101424.63;692855;28;1405;-63
2023/09/25 00:04:17;;;;;;;2.60;1.43;;;;;;;13.12;100.00;101419.38;691162;28;4370;-63
2023/09/25 00:04:37;;;;;;;2.88;1.45;;;;;;;13.15;100.00;101419.34;689885;28;1074;-63
2023/09/25 00:04:57;;;;;;;3.13;1.50;;;;;;;13.20;100.00;101422.84;690328;28;801;-63
2023/09/25 00:05:18;;;;;;;2.57;1.30;;;;;;;13.18;100.00;101419.38;687796;28;1043;-62
2023/09/25 00:05:39;;;;;;;2.65;1.30;;;;;;;13.13;100.00;101420.25;690226;28;1247;-62
2023/09/25 00:05:59;;;;;;;2.55;1.40;;;;;;;13.11;100.00;101423.75;685196;28;1213;-66
2023/09/25 00:06:20;;;;;;;3.30;1.50;;;;;;;13.10;100.00;101410.66;687002;28;1922;-65
2023/09/25 00:06:41;;;;;;;2.33;1.40;;;;;;;13.07;100.00;101416.78;687813;28;797;-64
2023/09/25 00:07:03;;;;;;;3.08;1.45;;;;;;;13.06;100.00;101411.53;688316;28;1075;-64
2023/09/25 00:07:24;;;;;;;2.35;1.42;;;;;;;13.08;100.00;101415.00;688612;28;4553;-64
2023/09/25 00:07:44;;;;;;;2.92;1.60;;;;;;;13.09;100.00;101416.75;689968;28;883;-65
2023/09/25 00:08:05;;;;;;;3.40;1.50;;;;;;;13.08;100.00;101407.13;691651;28;1201;-63
2023/09/25 00:08:27;;;;;;;3.42;1.40;;;;;;;13.06;100.00;101407.13;693165;28;935;-64
2023/09/25 00:08:47;;;;;;;2.10;1.40;;;;;;;12.99;100.00;101413.28;693328;28;1227;-63
2023/09/25 00:09:08;;;;;;;2.20;1.40;;;;;;;12.98;100.00;101410.69;691973;28;1413;-63
2023/09/25 00:09:28;;;;;;;2.03;1.38;;;;;;;12.95;100.00;101411.56;692933;28;963;-64
2023/09/25 00:09:49;;;;;;;2.87;1.50;;;;;;;12.94;100.00;101408.06;693130;28;999;-63
2023/09/25 00:10:09;;;;;;;2.80;1.47;;;;;;;12.94;100.00;101407.19;691560;28;4377;-64
2023/09/25 00:10:31;;;;;;;3.00;1.50;;;;;;;12.91;100.00;101404.56;693229;28;1453;-64
2023/09/25 00:10:52;;;;;;;2.90;1.40;;;;;;;12.89;100.00;101401.94;692828;28;1666;-63
2023/09/25 00:11:12;;;;;;;3.65;1.50;;;;;;;12.97;100.00;101409.78;691604;28;959;-63
2023/09/25 00:11:33;;;;;;;2.70;1.40;;;;;;;12.98;100.00;101406.28;692808;28;1270;-64
2023/09/25 00:11:53;;;;;;;3.20;1.53;;;;;;;12.95;100.00;101401.06;692961;28;876;-64
2023/09/25 00:12:13;;;;;;;3.38;1.60;;;;;;;12.94;100.00;101400.19;690342;28;1341;-64
2023/09/25 00:12:34;;;;;;;3.17;1.50;;;;;;;12.88;100.00;101400.19;693202;28;990;-64
2023/09/25 00:12:54;;;;;;;2.40;1.40;;;;;;;12.86;100.00;101396.72;692905;28;1014;-64
2023/09/25 00:13:15;;;;;;;2.40;1.47;;;;;;;12.93;100.00;101398.44;691606;28;4330;-63
2023/09/25 00:13:37;;;;;;;2.97;1.65;;;;;;;12.92;100.00;101398.44;692831;28;1361;-63
2023/09/25 00:13:58;;;;;;;3.40;1.80;;;;;;;12.94;100.00;101396.69;692805;28;1273;-64
2023/09/25 00:14:18;;;;;;;2.63;1.47;;;;;;;12.92;100.00;101398.44;692010;28;1808;-63
2023/09/25 00:14:39;;;;;;;2.30;1.40;;;;;;;12.99;100.00;101396.66;693038;28;745;-63
2023/09/25 00:14:59;;;;;;;2.33;1.50;;;;;;;13.01;100.00;101401.03;691638;28;1523;-63
2023/09/25 00:15:20;;;;;;;3.33;1.60;;;;;;;13.06;100.00;101396.66;693208;28;1302;-63
2023/09/25 00:15:44;;;;;;;3.33;1.43;;;;;;;13.08;100.00;101399.25;693130;28;848;-63
2023/09/25 00:16:07;;;;;;;2.70;1.40;;;;;;;13.05;100.00;101399.28;690551;28;896;-63
2023/09/25 00:16:27;;;;;;;3.20;1.52;;;;;;;13.04;100.00;101392.28;692344;28;4332;-63
2023/09/25 00:16:47;;;;;;;3.47;1.70;;;;;;;13.05;100.00;101396.66;693223;28;1213;-63
2023/09/25 00:17:08;;;;;;;2.90;1.50;;;;;;;13.08;100.00;101396.63;690952;28;1058;-63
2023/09/25 00:17:28;;;;;;;2.40;1.30;;;;;;;13.09;100.00;101398.38;693174;28;1082;-63
2023/09/25 00:17:49;;;;;;;3.03;1.50;;;;;;;13.08;100.00;101392.28;693091;28;813;-63
2023/09/25 00:18:10;;;;;;;2.57;1.53;;;;;;;13.09;100.00;101399.25;691816;28;983;-64
2023/09/25 00:18:30;;;;;;;2.15;1.40;;;;;;;13.03;100.00;101390.50;693324;28;1471;-63
2023/09/25 00:18:51;;;;;;;2.53;1.40;;;;;;;12.98;100.00;101389.69;693456;28;904;-64
2023/09/25 00:19:11;;;;;;;3.85;1.50;;;;;;;13.04;100.00;101394.91;691194;28;4453;-64
2023/09/25 00:19:32;;;;;;;3.23;1.53;;;;;;;13.03;100.00;101385.25;693238;28;895;-63
2023/09/25 00:19:52;;;;;;;2.70;1.40;;;;;;;13.02;100.00;101392.28;692492;28;3612;-63
2023/09/25 00:20:13;;;;;;;2.87;1.40;;;;;;;13.03;100.00;101396.66;690697;28;2292;-63
2023/09/25 00:20:33;;;;;;;3.53;1.50;;;;;;;13.11;100.00;101387.00;693081;28;876;-63
2023/09/25 00:20:54;;;;;;;2.70;1.40;;;;;;;13.11;100.00;101394.00;693167;28;907;-64
2023/09/25 00:21:14;;;;;;;2.63;1.60;;;;;;;13.14;100.00;101393.09;691812;28;2293;-64
2023/09/25 00:21:35;;;;;;;2.70;1.53;;;;;;;13.16;100.00;101389.59;693105;28;980;-65
2023/09/25 00:21:55;;;;;;;3.33;1.50;;;;;;;13.12;100.00;101393.13;690714;28;1332;-63
2023/09/25 00:22:16;;;;;;;2.60;1.40;;;;;;;13.15;100.00;101392.25;690886;28;4459;-63
2023/09/25 00:22:37;;;;;;;2.67;1.40;;;;;;;13.10;100.00;101393.13;693311;28;896;-61
2023/09/25 00:22:57;;;;;;;2.50;1.40;;;;;;;13.12;100.00;101393.13;691844;28;1193;-63
2023/09/25 00:23:18;;;;;;;2.78;1.50;;;;;;;13.09;100.00;101394.00;689541;28;1208;-63
2023/09/25 00:23:38;;;;;;;3.37;1.37;;;;;;;13.06;100.00;101393.16;692557;28;1436;-63
2023/09/25 00:23:59;;;;;;;4.05;1.50;;;;;;;13.01;100.00;101393.16;686158;28;1791;-61
2023/09/25 00:24:19;;;;;;;3.47;1.50;;;;;;;13.10;100.00;101389.66;688157;28;940;-63
2023/09/25 00:24:40;;;;;;;2.50;1.50;;;;;;;13.08;100.00;101387.03;687270;28;853;-63
2023/09/25 00:25:01;;;;;;;2.90;1.50;;;;;;;13.14;100.00;101391.38;688849;28;1365;-63
2023/09/25 00:25:23;;;;;;;3.33;1.60;;;;;;;13.11;100.00;101389.63;689303;28;4517;-63
2023/09/25 00:25:43;;;;;;;3.67;1.60;;;;;;;13.09;100.00;101401.00;688009;28;1018;-63
2023/09/25 00:26:06;;;;;;;3.70;1.70;;;;;;;13.09;100.00;101393.13;688111;28;2304;-63
2023/09/25 00:26:27;;;;;;;3.60;1.77;;;;;;;13.10;100.00;101392.28;689784;28;1965;-65
2023/09/25 00:26:48;;;;;;;4.45;1.90;;;;;;;13.14;100.00;101393.09;690493;28;1385;-63
2023/09/25 00:27:11;;;;;;;3.50;1.50;;;;;;;13.06;100.00;101382.66;689303;28;1768;-62
2023/09/25 00:27:31;;;;;;;3.20;1.40;;;;;;;13.10;100.00;101394.91;690955;28;963;-63
2023/09/25 00:27:52;;;;;;;3.10;1.50;;;;;;;13.24;100.00;101389.59;690348;28;1608;-62
2023/09/25 00:28:12;;;;;;;2.90;1.50;;;;;;;13.23;100.00;101395.72;685157;28;4373;-63
2023/09/25 00:28:33;;;;;;;3.63;1.50;;;;;;;13.20;100.00;101396.59;686496;28;1418;-65
2023/09/25 00:28:53;;;;;;;3.50;1.35;;;;;;;13.18;100.00;101387.88;685430;28;944;-63
2023/09/25 00:29:14;;;;;;;3.77;1.47;;;;;;;13.17;100.00;101393.97;685654;28;1721;-63
2023/09/25 00:29:34;;;;;;;2.78;1.75;;;;;;;13.14;100.00;101396.63;686164;28;797;-63
2023/09/25 00:29:54;;;;;;;2.40;1.40;;;;;;;13.05;100.00;101392.25;686654;28;1351;-62
2023/09/25 00:30:15;;;;;;;3.77;1.60;;;;;;;13.02;100.00;101391.41;685720;28;1375;-65
2023/09/25 00:30:35;;;;;;;3.23;1.40;;;;;;;13.08;100.00;101396.63;689874;28;1516;-63
2023/09/25 00:30:56;;;;;;;3.40;1.60;;;;;;;13.19;100.00;101391.34;690384;28;1560;-63
2023/09/25 00:31:16;;;;;;;2.38;1.50;;;;;;;13.16;100.00;101394.84;688451;28;4441;-62
2023/09/25 00:31:37;;;;;;;1.90;1.40;;;;;;;13.05;100.00;101387.00;692578;28;821;-62
2023/09/25 00:31:58;;;;;;;2.38;1.40;;;;;;;13.02;100.00;101388.78;692747;28;1441;-64
2023/09/25 00:32:18;;;;;;;2.47;1.37;;;;;;;13.02;100.00;101396.66;688498;28;2358;-63
2023/09/25 00:32:39;;;;;;;2.47;1.30;;;;;;;13.03;100.00;101394.03;686566;28;1463;-62
2023/09/25 00:33:01;;;;;;;3.25;1.40;;;;;;;13.03;100.00;101394.03;684185;28;1789;-63
2023/09/25 00:33:22;;;;;;;2.75;1.40;;;;;;;13.13;100.00;101388.75;685834;28;861;-64
2023/09/25 00:33:43;;;;;;;3.75;1.42;;;;;;;13.11;100.00;101397.50;686572;28;1176;-64
2023/09/25 00:34:04;;;;;;;3.03;1.60;;;;;;;13.08;100.00;101394.00;683633;28;2577;-63
2023/09/25 00:34:24;;;;;;;3.33;1.60;;;;;;;13.09;100.00;101388.75;685325;28;4552;-63
2023/09/25 00:34:44;;;;;;;2.93;1.50;;;;;;;13.08;100.00;101394.00;685317;28;3072;-64
2023/09/25 00:35:07;;;;;;;2.30;1.47;;;;;;;13.17;100.00;101393.97;685597;28;1749;-63
2023/09/25 00:35:27;;;;;;;2.80;1.42;;;;;;;13.11;100.00;101394.00;685531;28;2194;-64
2023/09/25 00:35:48;;;;;;;3.50;1.50;;;;;;;13.08;100.00;101396.63;683861;28;948;-63
2023/09/25 00:36:08;;;;;;;4.00;2.00;;;;;;;13.03;100.00;101398.38;684901;28;2356;-64
2023/09/25 00:36:28;;;;;;;3.35;1.88;;;;;;;13.01;100.00;101394.91;686752;28;1537;-65
2023/09/25 00:36:49;;;;;;;3.00;1.50;;;;;;;13.05;100.00;101401.91;690300;28;777;-63
2023/09/25 00:37:09;;;;;;;3.20;1.60;;;;;;;13.03;100.00;101396.66;683368;28;4453;-63
2023/09/25 00:37:30;;;;;;;3.07;1.50;;;;;;;13.03;100.00;101401.00;690515;28;825;-64
2023/09/25 00:37:50;;;;;;;2.33;1.52;;;;;;;13.05;100.00;101400.13;689716;28;845;-64
2023/09/25 00:38:10;;;;;;;2.50;1.30;;;;;;;13.08;100.00;101399.25;684337;28;1493;-64
2023/09/25 00:38:31;;;;;;;4.13;1.33;;;;;;;13.11;100.00;101397.50;687518;28;907;-63
2023/09/25 00:38:54;;;;;;;4.13;1.57;;;;;;;13.11;100.00;101404.50;688326;28;1307;-65
2023/09/25 00:39:14;;;;;;;3.10;1.65;;;;;;;13.13;100.00;101408.00;689068;28;1244;-64
2023/09/25 00:39:35;;;;;;;2.80;1.80;;;;;;;13.11;100.00;101402.75;691068;28;825;-65
2023/09/25 00:39:56;;;;;;;3.87;1.60;;;;;;;13.13;100.00;101396.63;690749;28;853;-64
2023/09/25 00:40:21;;;;;;;4.30;1.60;;;;;;;13.13;100.00;101404.50;688532;28;4397;-64
2023/09/25 00:40:42;;;;;;;2.97;1.50;;;;;;;12.99;100.00;101397.53;687318;28;1386;-64
2023/09/25 00:41:03;;;;;;;2.78;1.58;;;;;;;12.99;100.00;101404.53;687849;28;1139;-64
2023/09/25 00:41:23;;;;;;;2.77;1.50;;;;;;;12.98;100.00;101406.28;687825;28;885;-64
2023/09/25 00:41:44;;;;;;;2.88;1.48;;;;;;;12.98;100.00;101403.66;686443;28;845;-64
2023/09/25 00:42:05;;;;;;;2.97;1.30;;;;;;;12.98;100.00;101401.03;684968;28;2457;-64
2023/09/25 00:42:26;;;;;;;2.58;1.40;;;;;;;12.96;100.00;101394.94;683891;28;5434;-64
2023/09/25 00:42:49;;;;;;;3.00;1.50;;;;;;;12.96;100.00;101402.81;687056;28;1342;-63
2023/09/25 00:43:12;;;;;;;1.98;1.40;;;;;;;12.97;100.00;101401.06;685085;28;4581;-64
2023/09/25 00:43:33;;;;;;;1.75;1.30;;;;;;;12.97;100.00;101404.53;685007;28;1405;-64
2023/09/25 00:43:53;;;;;;;2.07;1.33;;;;;;;13.04;100.00;101405.41;686342;28;1531;-64
2023/09/25 00:44:13;;;;;;;2.53;1.40;;;;;;;13.02;100.00;101402.78;686675;28;881;-65
2023/09/25 00:44:34;;;;;;;2.13;1.33;;;;;;;13.07;100.00;101400.13;688182;28;959;-64
2023/09/25 00:44:54;;;;;;;1.80;1.20;;;;;;;13.13;100.00;101404.50;689371;28;821;-64
2023/09/25 00:45:15;;;;;;;1.83;1.20;;;;;;;13.15;100.00;101398.34;689137;28;2265;-64
2023/09/25 00:45:37;;;;;;;3.72;1.52;;;;;;;13.07;100.00;101406.28;693114;28;1283;-64
2023/09/25 00:45:57;;;;;;;5.15;1.85;;;;;;;13.04;100.00;101402.78;693314;28;980;-64
2023/09/25 00:46:18;;;;;;;2.87;1.43;;;;;;;13.03;100.00;101414.13;691663;28;4595;-64
2023/09/25 00:46:39;;;;;;;2.53;1.40;;;;;;;12.99;100.00;101402.78;693661;28;820;-63
2023/09/25 00:46:59;;;;;;;2.20;1.50;;;;;;;13.04;100.00;101401.03;690455;28;1239;-65
2023/09/25 00:47:20;;;;;;;2.60;1.60;;;;;;;13.05;100.00;101407.16;688043;28;1208;-64
2023/09/25 00:47:42;;;;;;;2.60;1.63;;;;;;;13.02;100.00;101407.16;688089;28;826;-64
2023/09/25 00:48:02;;;;;;;3.08;1.60;;;;;;;13.00;100.00;101407.19;689509;28;2426;-64
2023/09/25 00:48:28;;;;;;;3.58;1.50;;;;;;;13.07;100.00;101410.63;687743;28;1208;-64
2023/09/25 00:48:48;;;;;;;3.33;1.70;;;;;;;13.19;100.00;101409.72;685551;28;1237;-64
2023/09/25 00:49:09;;;;;;;2.40;1.60;;;;;;;13.18;100.00;101401.00;683966;28;4373;-64
2023/09/25 00:49:31;;;;;;;3.08;1.60;;;;;;;13.15;100.00;101408.84;686398;28;929;-64
2023/09/25 00:49:51;;;;;;;3.03;1.58;;;;;;;13.13;100.00;101408.00;685161;28;1584;-64
2023/09/25 00:50:14;;;;;;;2.80;1.40;;;;;;;13.08;100.00;101407.13;684368;28;2025;-65
2023/09/25 00:50:35;;;;;;;3.35;1.50;;;;;;;13.03;100.00;101403.63;687053;28;1575;-64
2023/09/25 00:50:57;;;;;;;3.07;1.60;;;;;;;12.96;100.00;101408.06;689509;28;882;-64
2023/09/25 00:51:19;;;;;;;2.70;1.52;;;;;;;12.96;100.00;101408.06;686816;28;2370;-64
2023/09/25 00:51:40;;;;;;;2.65;1.60;;;;;;;13.00;100.00;101408.91;688782;28;807;-63
2023/09/25 00:52:01;;;;;;;2.30;1.47;;;;;;;13.02;100.00;101413.28;689856;28;2467;-63
2023/09/25 00:52:22;;;;;;;2.67;1.35;;;;;;;13.02;100.00;101401.91;689354;28;4373;-63
2023/09/25 00:52:44;;;;;;;2.27;1.40;;;;;;;13.03;100.00;101408.88;687845;28;1335;-64
2023/09/25 00:53:08;;;;;;;2.40;1.30;;;;;;;13.09;100.00;101408.88;687369;28;2351;-64
2023/09/25 00:53:29;;;;;;;2.78;1.40;;;;;;;13.05;100.00;101405.38;691028;28;1346;-64
2023/09/25 00:53:50;;;;;;;3.22;1.73;;;;;;;13.01;100.00;101402.78;686323;28;1322;-64
2023/09/25 00:54:15;;;;;;;3.08;1.55;;;;;;;12.99;100.00;101407.16;686155;28;1779;-64
2023/09/25 00:54:36;;;;;;;2.58;1.50;;;;;;;12.95;100.00;101401.91;689311;28;1376;-64
2023/09/25 00:54:58;;;;;;;3.00;1.40;;;;;;;12.99;100.00;101401.91;690756;28;829;-64
2023/09/25 00:55:18;;;;;;;3.72;1.50;;;;;;;13.07;100.00;101402.75;688622;28;4409;-64
2023/09/25 00:55:38;;;;;;;3.13;1.60;;;;;;;13.03;100.00;101404.53;691638;28;1346;-64
2023/09/25 00:56:00;;;;;;;2.37;1.30;;;;;;;13.01;100.00;101408.03;689468;28;1301;-65
2023/09/25 00:56:20;;;;;;;2.45;1.30;;;;;;;12.99;100.00;101401.91;690012;28;1829;-64
2023/09/25 00:56:42;;;;;;;3.25;1.40;;;;;;;13.01;100.00;101410.66;689935;28;1303;-64
2023/09/25 00:57:03;;;;;;;2.83;1.30;;;;;;;12.97;100.00;101399.28;688114;28;2403;-63
2023/09/25 00:57:23;;;;;;;2.80;1.40;;;;;;;12.93;100.00;101397.53;690665;28;1392;-64
2023/09/25 00:57:48;;;;;;;2.67;1.52;;;;;;;12.87;100.00;101403.69;690162;28;872;-64
2023/09/25 00:58:11;;;;;;;3.03;1.42;;;;;;;12.86;100.00;101399.34;691898;28;4372;-63
2023/09/25 00:58:31;;;;;;;3.30;1.45;;;;;;;12.87;100.00;101395.81;692821;28;1485;-64
2023/09/25 00:58:52;;;;;;;2.90;1.33;;;;;;;12.97;100.00;101401.91;693649;28;893;-64
2023/09/25 00:59:12;;;;;;;2.87;1.40;;;;;;;13.00;100.00;101398.41;691470;28;2351;-64
2023/09/25 00:59:33;;;;;;;2.78;1.50;;;;;;;13.16;100.00;101402.72;693463;28;1057;-63
2023/09/25 00:59:55;;;;;;;3.00;1.60;;;;;;;13.16;100.00;101400.09;693559;28;951;-63
2023/09/25 01:00:17;;;;;;;2.53;1.42;;;;;;;13.16;100.00;101399.25;692343;28;1018;-64
2023/09/25 01:00:38;;;;;;;2.22;1.30;;;;;;;13.13;100.00;101401.88;693043;28;2060;-64
2023/09/25 01:00:59;;;;;;;2.63;1.40;;;;;;;13.08;100.00;101404.50;686961;28;1527;-64
2023/09/25 01:01:19;;;;;;;3.80;1.70;;;;;;;13.11;100.00;101396.63;679787;28;4411;-64
2023/09/25 01:01:40;;;;;;;2.22;1.40;;;;;;;13.09;100.00;101399.25;684818;28;1355;-65
2023/09/25 01:02:01;;;;;;;3.05;1.38;;;;;;;13.12;100.00;101395.75;684872;28;1635;-63
2023/09/25 01:02:22;;;;;;;2.70;1.40;;;;;;;13.09;100.00;101407.13;683515;28;881;-64
2023/09/25 01:02:42;;;;;;;2.45;1.30;;;;;;;13.09;100.00;101401.00;687492;28;1601;-64
2023/09/25 01:03:04;;;;;;;3.13;1.30;;;;;;;13.15;100.00;101400.97;686173;28;2059;-63
2023/09/25 01:03:25;;;;;;;2.72;1.30;;;;;;;13.07;100.00;101400.13;687459;28;1505;-63
2023/09/25 01:03:45;;;;;;;2.60;1.40;;;;;;;13.04;100.00;101394.91;686642;28;1355;-64
2023/09/25 01:04:06;;;;;;;2.93;1.50;;;;;;;13.03;100.00;101398.38;685303;28;1877;-64
2023/09/25 01:04:26;;;;;;;2.70;1.60;;;;;;;13.03;100.00;101395.75;683880;28;4362;-63
2023/09/25 01:04:48;;;;;;;2.60;1.38;;;;;;;13.05;100.00;101401.91;684817;28;1263;-64
2023/09/25 01:05:09;;;;;;;2.88;1.40;;;;;;;13.02;100.00;101394.03;684949;28;960;-64
2023/09/25 01:05:31;;;;;;;2.70;1.48;;;;;;;13.05;100.00;101396.66;684453;28;1158;-63
2023/09/25 01:05:51;;;;;;;2.60;1.40;;;;;;;13.04;100.00;101398.41;687323;28;861;-64
2023/09/25 01:06:12;;;;;;;2.80;1.37;;;;;;;13.06;100.00;101399.25;688367;28;2196;-63
2023/09/25 01:06:32;;;;;;;3.33;1.38;;;;;;;13.07;100.00;101400.13;687520;28;1973;-63
2023/09/25 01:06:55;;;;;;;2.53;1.30;;;;;;;13.03;100.00;101387.88;690541;28;778;-64
2023/09/25 01:07:17;;;;;;;2.60;1.35;;;;;;;13.02;100.00;101396.66;688244;28;4590;-63
2023/09/25 01:07:38;;;;;;;2.88;1.40;;;;;;;13.00;100.00;101395.78;692959;28;900;-64
2023/09/25 01:07:58;;;;;;;2.47;1.50;;;;;;;13.03;100.00;101396.66;693183;28;1333;-63
2023/09/25 01:08:19;;;;;;;3.30;1.70;;;;;;;13.05;100.00;101401.91;692637;28;2304;-64
2023/09/25 01:08:40;;;;;;;3.33;1.70;;;;;;;13.07;100.00;101397.50;693363;28;897;-64
2023/09/25 01:09:01;;;;;;;2.95;1.70;;;;;;;13.06;100.00;101398.41;689716;28;1301;-63
2023/09/25 01:09:21;;;;;;;2.50;1.47;;;;;;;13.11;100.00;101396.63;688585;28;771;-65
2023/09/25 01:10:03;;;;;;;2.53;1.60;;;;;;;13.10;100.00;101400.13;689404;28;1500;-63
2023/09/25 01:10:23;;;;;;;2.60;1.40;;;;;;;13.06;100.00;101404.50;686761;28;4268;-63
2023/09/25 01:10:44;;;;;;;2.60;1.42;;;;;;;13.06;100.00;101406.28;686140;28;875;-64
2023/09/25 01:11:06;;;;;;;2.45;1.50;;;;;;;13.05;100.00;101394.88;689687;28;1463;-64
2023/09/25 01:11:28;;;;;;;3.00;1.50;;;;;;;13.05;100.00;101401.91;690730;28;1110;-63
2023/09/25 01:11:48;;;;;;;3.40;1.50;;;;;;;13.04;100.00;101397.53;690081;28;1023;-63
2023/09/25 01:12:11;;;;;;;1.93;1.30;;;;;;;13.15;100.00;101400.13;688655;28;1563;-64
2023/09/25 01:12:32;;;;;;;2.20;1.40;;;;;;;13.22;100.00;101402.72;690426;28;898;-64
2023/09/25 01:12:53;;;;;;;3.08;1.40;;;;;;;13.20;100.00;101408.84;689363;28;1366;-64
2023/09/25 01:13:15;;;;;;;3.58;1.40;;;;;;;13.17;100.00;101399.22;685347;28;4404;-63
2023/09/25 01:13:35;;;;;;;2.42;1.40;;;;;;;13.16;100.00;101400.09;685942;28;872;-64
2023/09/25 01:13:58;;;;;;;2.77;1.37;;;;;;;13.14;100.00;101401.88;686011;28;865;-64
2023/09/25 01:14:19;;;;;;;2.60;1.40;;;;;;;13.14;100.00;101408.88;687191;28;2228;-64
2023/09/25 01:14:39;;;;;;;2.58;1.40;;;;;;;13.11;100.00;101396.63;685554;28;1196;-63
2023/09/25 01:14:59;;;;;;;3.33;1.50;;;;;;;13.09;100.00;101404.50;687689;28;978;-64
2023/09/25 01:15:20;;;;;;;2.83;1.50;;;;;;;13.05;100.00;101407.16;689822;28;1528;-64
2023/09/25 01:15:41;;;;;;;2.90;1.38;;;;;;;13.02;100.00;101399.28;691081;28;985;-64
2023/09/25 01:16:02;;;;;;;3.07;1.40;;;;;;;12.99;100.00;101405.41;689349;28;3276;-63
2023/09/25 01:16:23;;;;;;;3.17;1.50;;;;;;;12.96;100.00;101402.81;690609;28;4590;-64
2023/09/25 01:16:43;;;;;;;2.23;1.30;;;;;;;12.95;100.00;101399.28;693607;28;1144;-64
2023/09/25 01:17:03;;;;;;;2.17;1.27;;;;;;;12.94;100.00;101400.19;692522;28;2424;-63
2023/09/25 01:17:24;;;;;;;2.47;1.30;;;;;;;12.99;100.00;101402.78;693561;28;1725;-64
2023/09/25 01:17:45;;;;;;;4.30;1.40;;;;;;;13.07;100.00;101403.66;691983;28;1300;-64
2023/09/25 01:18:05;;;;;;;3.63;1.33;;;;;;;13.05;100.00;101402.75;690431;28;2292;-64
2023/09/25 01:18:26;;;;;;;2.65;1.33;;;;;;;13.07;100.00;101405.38;690857;28;1235;-63
2023/09/25 01:18:47;;;;;;;2.60;1.20;;;;;;;13.07;100.00;101402.75;690476;28;883;-64
2023/09/25 01:19:07;;;;;;;3.08;1.30;;;;;;;13.04;100.00;101405.41;691160;28;1694;-64
2023/09/25 01:19:27;;;;;;;2.50;1.30;;;;;;;13.02;100.00;101402.78;691854;28;4326;-63
2023/09/25 01:19:48;;;;;;;2.40;1.40;;;;;;;13.01;100.00;101406.28;694040;28;868;-64
2023/09/25 01:20:17;;;;;;;2.63;1.38;;;;;;;12.98;100.00;101405.44;690799;28;2259;-64
2023/09/25 01:20:37;;;;;;;2.40;1.40;;;;;;;12.99;100.00;101401.91;693783;28;777;-64
2023/09/25 01:20:58;;;;;;;3.47;1.50;;;;;;;12.93;100.00;101402.78;692960;28;1371;-63
2023/09/25 01:21:18;;;;;;;2.30;1.42;;;;;;;12.93;100.00;101408.94;691725;28;1739;-64
2023/09/25 01:21:44;;;;;;;3.10;1.50;;;;;;;12.90;100.00;101398.47;693354;28;1199;-64
2023/09/25 01:22:04;;;;;;;2.55;1.50;;;;;;;12.88;100.00;101402.81;691422;28;1618;-63
2023/09/25 01:22:25;;;;;;;3.20;1.40;;;;;;;12.88;100.00;101399.34;692681;28;4451;-63
2023/09/25 01:22:49;;;;;;;3.03;1.40;;;;;;;12.87;100.00;101406.31;690599;28;1299;-64
2023/09/25 01:23:10;;;;;;;3.22;1.60;;;;;;;12.93;100.00;101403.69;689026;28;1750;-64
2023/09/25 01:23:30;;;;;;;2.80;1.60;;;;;;;12.93;100.00;101397.53;690332;28;1269;-64
2023/09/25 01:23:50;;;;;;;2.80;1.47;;;;;;;12.93;100.00;101400.16;690975;28;881;-64
2023/09/25 01:24:11;;;;;;;3.58;1.73;;;;;;;12.91;100.00;101394.94;689101;28;1302;-63
2023/09/25 01:24:31;;;;;;;2.80;1.53;;;;;;;12.92;100.00;101396.69;690488;28;1255;-63
2023/09/25 01:24:52;;;;;;;2.30;1.40;;;;;;;12.93;100.00;101390.56;693692;28;789;-64
2023/09/25 01:25:13;;;;;;;2.75;1.42;;;;;;;12.94;100.00;101394.06;688750;28;4547;-63
2023/09/25 01:25:33;;;;;;;2.95;1.40;;;;;;;12.93;100.00;101392.28;690856;28;920;-64
2023/09/25 01:25:54;;;;;;;2.85;1.30;;;;;;;12.95;100.00;101391.41;686150;28;1418;-64
2023/09/25 01:26:14;;;;;;;2.63;1.30;;;;;;;12.90;100.00;101393.22;681814;28;1750;-63
2023/09/25 01:26:35;;;;;;;2.20;1.40;;;;;;;12.99;100.00;101401.91;683576;28;1907;-62
2023/09/25 01:26:57;;;;;;;2.35;1.45;;;;;;;12.94;100.00;101391.44;682271;28;1434;-64
2023/09/25 01:27:18;;;;;;;2.50;1.37;;;;;;;12.94;100.00;101394.94;681953;28;1154;-63
2023/09/25 01:27:44;;;;;;;2.53;1.40;;;;;;;12.93;100.00;101398.44;684711;28;1205;-64
2023/09/25 01:28:04;;;;;;;3.37;1.50;;;;;;;12.91;100.00;101394.94;684268;28;1815;-63
2023/09/25 01:28:25;;;;;;;3.30;1.50;;;;;;;12.88;100.00;101389.69;683976;28;4497;-63
2023/09/25 01:28:48;;;;;;;3.83;1.58;;;;;;;12.85;100.00;101392.34;685296;28;829;-64
2023/09/25 01:29:09;;;;;;;2.83;1.40;;;;;;;12.88;100.00;101394.09;687768;28;2291;-63
2023/09/25 01:29:30;;;;;;;2.03;1.33;;;;;;;12.87;100.00;101398.44;688643;28;960;-64
2023/09/25 01:29:51;;;;;;;3.30;1.50;;;;;;;12.94;100.00;101397.56;689881;28;1026;-64
2023/09/25 01:30:13;;;;;;;3.60;1.50;;;;;;;12.92;100.00;101390.56;688009;28;2193;-64
2023/09/25 01:30:34;;;;;;;2.90;1.40;;;;;;;12.90;100.00;101387.97;688148;28;999;-64
2023/09/25 01:30:54;;;;;;;3.35;1.40;;;;;;;12.87;100.00;101392.31;688583;28;1342;-64
2023/09/25 01:31:17;;;;;;;2.50;1.37;;;;;;;12.95;100.00;101395.81;687394;28;4398;-64
2023/09/25 01:31:37;;;;;;;2.72;1.40;;;;;;;12.99;100.00;101391.41;687779;28;877;-64
2023/09/25 01:31:58;;;;;;;3.47;1.40;;;;;;;13.03;100.00;101393.13;688900;28;994;-64
2023/09/25 01:32:19;;;;;;;2.88;1.60;;;;;;;13.00;100.00;101396.69;689290;28;1950;-64
2023/09/25 01:32:42;;;;;;;2.70;1.60;;;;;;;12.92;100.00;101391.44;690053;28;877;-63
2023/09/25 01:33:03;;;;;;;2.53;1.42;;;;;;;12.94;100.00;101394.94;689676;28;1244;-62
2023/09/25 01:33:23;;;;;;;2.42;1.33;;;;;;;12.84;100.00;101395.84;691228;28;912;-63
2023/09/25 01:33:43;;;;;;;2.60;1.45;;;;;;;12.80;100.00;101391.47;693100;28;1106;-63
2023/09/25 01:34:04;;;;;;;2.43;1.40;;;;;;;12.78;100.00;101395.84;687137;28;1255;-63
2023/09/25 01:34:24;;;;;;;3.27;1.47;;;;;;;12.77;100.00;101397.59;688012;28;5309;-63
2023/09/25 01:34:45;;;;;;;2.97;1.50;;;;;;;12.79;100.00;101394.97;687732;28;932;-64
2023/09/25 01:35:13;;;;;;;2.70;1.40;;;;;;;12.80;100.00;101386.22;687809;28;2439;-63
2023/09/25 01:35:33;;;;;;;2.13;1.30;;;;;;;12.82;100.00;101394.97;687610;28;1418;-64
2023/09/25 01:35:54;;;;;;;2.07;1.40;;;;;;;12.84;100.00;101397.59;689684;28;829;-64
2023/09/25 01:36:14;;;;;;;2.75;1.50;;;;;;;12.92;100.00;101394.06;690708;28;1558;-63
2023/09/25 01:36:35;;;;;;;2.90;1.53;;;;;;;12.87;100.00;101398.44;687937;28;1543;-63
2023/09/25 01:36:55;;;;;;;2.73;1.50;;;;;;;12.88;100.00;101400.19;684739;28;975;-64
2023/09/25 01:37:15;;;;;;;2.57;1.50;;;;;;;12.95;100.00;101399.28;682751;28;4395;-64
2023/09/25 01:37:36;;;;;;;2.63;1.40;;;;;;;12.93;100.00;101398.44;682834;28;1102;-64
2023/09/25 01:37:59;;;;;;;3.50;1.50;;;;;;;12.88;100.00;101394.94;685222;28;885;-64
2023/09/25 01:38:19;;;;;;;2.35;1.40;;;;;;;12.85;100.00;101397.59;684273;28;2361;-64
2023/09/25 01:38:40;;;;;;;2.67;1.50;;;;;;;12.83;100.00;101396.69;687760;28;1330;-63
2023/09/25 01:39:01;;;;;;;2.20;1.40;;;;;;;12.80;100.00;101391.47;690046;28;1214;-64
2023/09/25 01:39:22;;;;;;;2.33;1.30;;;;;;;12.77;100.00;101394.09;686699;28;1809;-64
2023/09/25 01:39:42;;;;;;;2.50;1.50;;;;;;;12.83;100.00;101396.69;688907;28;750;-64